Crocus Hill, Anguilla
Current Conditions -  °F | °C
As of 12:00 PM on Friday 31 Oct 2014 (Local Time) from TNCM Reporting Station
Few Clouds Few Clouds  
Wind Chill: 86°   Ceiling: Unl
Heat Index: 95°   Visibility: 6mi
Dew Point: 75°   Wind: 12mph
Humidity: 70%   Direction: 130°SE
Pressure: 29.91"   Gusts: NA
Location:  18.25°N, 63.08°W
Report Text: TNCM 311600Z 13010KT 9999 FEW020CB FEW023 30/24 Q1013 A2991 NOSIG RMK CB TO WNW
Loading
Personal Weather Stations






























Interactive Weather Map
Tropical Storm Tracking
New forecast layout! Learn more

10-Day Weather Forecast

Advertisements
Track Severe Weather on mobile